sensor_id;sensor_type;location;lat;lon;timestamp;temperature;humidity
28484;DHT22;15704;48.834;8.736;2023-06-22T00:00:58;24.70;95.80
28484;DHT22;15704;48.834;8.736;2023-06-22T00:03:25;24.70;95.80
28484;DHT22;15704;48.834;8.736;2023-06-22T00:05:53;24.60;95.80
28484;DHT22;15704;48.834;8.736;2023-06-22T00:08:20;24.60;95.90
28484;DHT22;15704;48.834;8.736;2023-06-22T00:10:47;24.60;95.90
28484;DHT22;15704;48.834;8.736;2023-06-22T00:13:14;24.60;95.90
28484;DHT22;15704;48.834;8.736;2023-06-22T00:15:41;24.60;96.00
28484;DHT22;15704;48.834;8.736;2023-06-22T00:18:09;24.50;96.00
28484;DHT22;15704;48.834;8.736;2023-06-22T00:20:37;24.50;96.00
28484;DHT22;15704;48.834;8.736;2023-06-22T00:23:05;24.50;96.00
28484;DHT22;15704;48.834;8.736;2023-06-22T00:25:39;24.50;96.10
28484;DHT22;15704;48.834;8.736;2023-06-22T00:28:09;24.50;96.10
28484;DHT22;15704;48.834;8.736;2023-06-22T00:30:36;24.50;96.10
28484;DHT22;15704;48.834;8.736;2023-06-22T00:33:03;24.50;96.10
28484;DHT22;15704;48.834;8.736;2023-06-22T00:35:30;24.40;96.10
28484;DHT22;15704;48.834;8.736;2023-06-22T00:37:58;24.40;96.10
28484;DHT22;15704;48.834;8.736;2023-06-22T00:40:28;24.50;96.10
28484;DHT22;15704;48.834;8.736;2023-06-22T00:42:56;24.40;96.10
28484;DHT22;15704;48.834;8.736;2023-06-22T00:45:23;24.40;96.10
28484;DHT22;15704;48.834;8.736;2023-06-22T00:47:56;24.40;96.10
28484;DHT22;15704;48.834;8.736;2023-06-22T00:50:26;24.40;96.10
28484;DHT22;15704;48.834;8.736;2023-06-22T00:52:56;24.40;96.10
28484;DHT22;15704;48.834;8.736;2023-06-22T00:55:23;24.40;96.10
28484;DHT22;15704;48.834;8.736;2023-06-22T00:57:50;24.40;96.10
28484;DHT22;15704;48.834;8.736;2023-06-22T01:00:18;24.40;96.10
28484;DHT22;15704;48.834;8.736;2023-06-22T01:02:46;24.40;96.00
28484;DHT22;15704;48.834;8.736;2023-06-22T01:05:14;24.40;96.10
28484;DHT22;15704;48.834;8.736;2023-06-22T01:15:53;24.30;96.10
28484;DHT22;15704;48.834;8.736;2023-06-22T01:18:23;24.30;96.10
28484;DHT22;15704;48.834;8.736;2023-06-22T01:20:56;24.30;96.10
28484;DHT22;15704;48.834;8.736;2023-06-22T01:26:38;24.30;96.10
28484;DHT22;15704;48.834;8.736;2023-06-22T01:29:08;24.20;96.10
28484;DHT22;15704;48.834;8.736;2023-06-22T01:31:39;24.20;96.20
28484;DHT22;15704;48.834;8.736;2023-06-22T01:34:08;24.20;96.20
28484;DHT22;15704;48.834;8.736;2023-06-22T01:36:36;24.20;96.20
28484;DHT22;15704;48.834;8.736;2023-06-22T01:39:05;24.20;96.30
28484;DHT22;15704;48.834;8.736;2023-06-22T01:41:35;24.10;96.70
28484;DHT22;15704;48.834;8.736;2023-06-22T01:44:05;24.10;96.40
28484;DHT22;15704;48.834;8.736;2023-06-22T01:46:34;24.10;96.40
28484;DHT22;15704;48.834;8.736;2023-06-22T01:49:02;24.10;96.40
28484;DHT22;15704;48.834;8.736;2023-06-22T01:51:29;24.10;96.40
28484;DHT22;15704;48.834;8.736;2023-06-22T01:53:56;24.10;96.40
28484;DHT22;15704;48.834;8.736;2023-06-22T01:56:23;24.10;96.40
28484;DHT22;15704;48.834;8.736;2023-06-22T01:59:08;24.10;96.40
28484;DHT22;15704;48.834;8.736;2023-06-22T02:01:43;24.10;96.40
28484;DHT22;15704;48.834;8.736;2023-06-22T02:04:24;24.10;96.40
28484;DHT22;15704;48.834;8.736;2023-06-22T02:06:56;24.00;96.40
28484;DHT22;15704;48.834;8.736;2023-06-22T02:09:26;24.00;96.50
28484;DHT22;15704;48.834;8.736;2023-06-22T02:11:56;24.00;96.40
28484;DHT22;15704;48.834;8.736;2023-06-22T02:14:24;24.00;96.40
28484;DHT22;15704;48.834;8.736;2023-06-22T02:16:51;24.00;96.50
28484;DHT22;15704;48.834;8.736;2023-06-22T02:19:23;24.00;96.50
28484;DHT22;15704;48.834;8.736;2023-06-22T02:21:50;24.00;96.50
28484;DHT22;15704;48.834;8.736;2023-06-22T02:24:17;23.90;96.40
28484;DHT22;15704;48.834;8.736;2023-06-22T02:26:43;24.00;96.40
28484;DHT22;15704;48.834;8.736;2023-06-22T02:29:12;24.00;96.50
28484;DHT22;15704;48.834;8.736;2023-06-22T02:31:39;23.90;96.40
28484;DHT22;15704;48.834;8.736;2023-06-22T02:34:06;23.90;96.50
28484;DHT22;15704;48.834;8.736;2023-06-22T02:36:33;23.90;96.40
28484;DHT22;15704;48.834;8.736;2023-06-22T02:39:00;23.90;96.50
28484;DHT22;15704;48.834;8.736;2023-06-22T02:41:28;23.90;96.40
28484;DHT22;15704;48.834;8.736;2023-06-22T02:43:55;23.90;96.40
28484;DHT22;15704;48.834;8.736;2023-06-22T02:46:22;23.90;96.40
28484;DHT22;15704;48.834;8.736;2023-06-22T02:48:48;23.90;96.30
28484;DHT22;15704;48.834;8.736;2023-06-22T02:51:15;23.90;96.50
28484;DHT22;15704;48.834;8.736;2023-06-22T02:53:42;23.90;96.50
28484;DHT22;15704;48.834;8.736;2023-06-22T02:56:11;23.90;96.50
28484;DHT22;15704;48.834;8.736;2023-06-22T02:58:39;23.90;96.50
28484;DHT22;15704;48.834;8.736;2023-06-22T03:01:06;23.80;96.50
28484;DHT22;15704;48.834;8.736;2023-06-22T03:03:33;23.80;96.50
28484;DHT22;15704;48.834;8.736;2023-06-22T03:06:00;23.80;96.50
28484;DHT22;15704;48.834;8.736;2023-06-22T03:08:30;23.80;96.50
28484;DHT22;15704;48.834;8.736;2023-06-22T03:10:56;23.80;96.50
28484;DHT22;15704;48.834;8.736;2023-06-22T03:13:23;23.80;96.50
28484;DHT22;15704;48.834;8.736;2023-06-22T03:15:50;23.80;96.60
28484;DHT22;15704;48.834;8.736;2023-06-22T03:18:17;23.80;96.50
28484;DHT22;15704;48.834;8.736;2023-06-22T03:20:44;23.80;96.60
28484;DHT22;15704;48.834;8.736;2023-06-22T03:23:10;23.70;96.50
28484;DHT22;15704;48.834;8.736;2023-06-22T03:25:37;23.70;96.50
28484;DHT22;15704;48.834;8.736;2023-06-22T03:28:04;23.70;96.60
28484;DHT22;15704;48.834;8.736;2023-06-22T03:30:31;23.70;96.60
28484;DHT22;15704;48.834;8.736;2023-06-22T03:32:58;23.70;96.60
28484;DHT22;15704;48.834;8.736;2023-06-22T03:35:25;23.70;96.70
28484;DHT22;15704;48.834;8.736;2023-06-22T03:37:51;23.70;96.60
28484;DHT22;15704;48.834;8.736;2023-06-22T03:40:18;23.70;96.60
28484;DHT22;15704;48.834;8.736;2023-06-22T03:42:46;23.70;96.60
28484;DHT22;15704;48.834;8.736;2023-06-22T03:45:12;23.70;96.60
28484;DHT22;15704;48.834;8.736;2023-06-22T03:47:39;23.70;96.70
28484;DHT22;15704;48.834;8.736;2023-06-22T03:50:06;23.70;96.70
28484;DHT22;15704;48.834;8.736;2023-06-22T03:52:33;23.70;96.70
28484;DHT22;15704;48.834;8.736;2023-06-22T03:55:00;23.70;96.70
28484;DHT22;15704;48.834;8.736;2023-06-22T03:57:27;23.70;96.70
28484;DHT22;15704;48.834;8.736;2023-06-22T03:59:57;23.70;96.70
28484;DHT22;15704;48.834;8.736;2023-06-22T04:02:24;23.70;96.70
28484;DHT22;15704;48.834;8.736;2023-06-22T04:04:51;23.70;96.70
28484;DHT22;15704;48.834;8.736;2023-06-22T04:07:18;23.70;96.60
28484;DHT22;15704;48.834;8.736;2023-06-22T04:09:45;23.70;96.60
28484;DHT22;15704;48.834;8.736;2023-06-22T04:12:12;23.70;96.50
28484;DHT22;15704;48.834;8.736;2023-06-22T04:14:39;23.80;96.60
28484;DHT22;15704;48.834;8.736;2023-06-22T04:17:05;23.80;96.50
28484;DHT22;15704;48.834;8.736;2023-06-22T04:19:32;23.80;96.50
28484;DHT22;15704;48.834;8.736;2023-06-22T04:21:59;23.80;96.50
28484;DHT22;15704;48.834;8.736;2023-06-22T04:24:26;23.90;96.40
28484;DHT22;15704;48.834;8.736;2023-06-22T04:26:53;23.90;96.40
28484;DHT22;15704;48.834;8.736;2023-06-22T04:29:21;23.90;96.40
28484;DHT22;15704;48.834;8.736;2023-06-22T04:31:57;23.90;96.40
28484;DHT22;15704;48.834;8.736;2023-06-22T04:34:29;23.90;96.30
28484;DHT22;15704;48.834;8.736;2023-06-22T04:36:56;23.90;96.20
28484;DHT22;15704;48.834;8.736;2023-06-22T04:39:23;23.90;96.20
28484;DHT22;15704;48.834;8.736;2023-06-22T04:41:50;24.00;96.10
28484;DHT22;15704;48.834;8.736;2023-06-22T04:44:18;24.10;96.10
28484;DHT22;15704;48.834;8.736;2023-06-22T04:46:53;24.10;96.10
28484;DHT22;15704;48.834;8.736;2023-06-22T04:49:36;24.10;95.90
28484;DHT22;15704;48.834;8.736;2023-06-22T04:52:05;24.10;95.90
28484;DHT22;15704;48.834;8.736;2023-06-22T04:54:32;24.20;95.90
28484;DHT22;15704;48.834;8.736;2023-06-22T04:57:00;24.20;95.80
28484;DHT22;15704;48.834;8.736;2023-06-22T04:59:28;24.20;95.80
28484;DHT22;15704;48.834;8.736;2023-06-22T05:02:00;24.20;95.80
28484;DHT22;15704;48.834;8.736;2023-06-22T05:04:29;24.20;96.50
28484;DHT22;15704;48.834;8.736;2023-06-22T05:07:00;24.10;97.30
28484;DHT22;15704;48.834;8.736;2023-06-22T05:09:27;24.10;97.50
28484;DHT22;15704;48.834;8.736;2023-06-22T05:11:54;24.10;97.50
28484;DHT22;15704;48.834;8.736;2023-06-22T05:14:20;24.10;97.50
28484;DHT22;15704;48.834;8.736;2023-06-22T05:16:48;24.00;97.90
28484;DHT22;15704;48.834;8.736;2023-06-22T05:19:15;24.00;98.10
28484;DHT22;15704;48.834;8.736;2023-06-22T05:21:42;24.00;98.10
28484;DHT22;15704;48.834;8.736;2023-06-22T05:24:09;24.00;98.00
28484;DHT22;15704;48.834;8.736;2023-06-22T05:26:36;24.10;98.10
28484;DHT22;15704;48.834;8.736;2023-06-22T05:29:03;24.10;98.10
28484;DHT22;15704;48.834;8.736;2023-06-22T05:31:30;24.10;98.10
28484;DHT22;15704;48.834;8.736;2023-06-22T05:33:57;24.10;98.10
28484;DHT22;15704;48.834;8.736;2023-06-22T05:36:24;24.10;98.20
28484;DHT22;15704;48.834;8.736;2023-06-22T05:38:53;24.10;98.10
28484;DHT22;15704;48.834;8.736;2023-06-22T05:41:20;24.10;98.20
28484;DHT22;15704;48.834;8.736;2023-06-22T05:43:47;24.10;98.20
28484;DHT22;15704;48.834;8.736;2023-06-22T05:46:14;24.10;98.20
28484;DHT22;15704;48.834;8.736;2023-06-22T05:48:40;24.10;98.10
28484;DHT22;15704;48.834;8.736;2023-06-22T05:51:07;24.20;98.20
28484;DHT22;15704;48.834;8.736;2023-06-22T05:53:34;24.10;98.20
28484;DHT22;15704;48.834;8.736;2023-06-22T05:56:00;24.10;98.30
28484;DHT22;15704;48.834;8.736;2023-06-22T05:58:27;24.10;98.20
28484;DHT22;15704;48.834;8.736;2023-06-22T06:00:54;24.20;98.30
28484;DHT22;15704;48.834;8.736;2023-06-22T06:03:21;24.20;98.30
28484;DHT22;15704;48.834;8.736;2023-06-22T06:05:48;24.20;98.30
28484;DHT22;15704;48.834;8.736;2023-06-22T06:08:14;24.10;98.30
28484;DHT22;15704;48.834;8.736;2023-06-22T06:10:41;24.20;98.30
28484;DHT22;15704;48.834;8.736;2023-06-22T06:13:08;24.30;98.20
28484;DHT22;15704;48.834;8.736;2023-06-22T06:15:35;24.30;98.30
28484;DHT22;15704;48.834;8.736;2023-06-22T06:18:02;24.30;98.20
28484;DHT22;15704;48.834;8.736;2023-06-22T06:20:32;24.30;98.30
28484;DHT22;15704;48.834;8.736;2023-06-22T06:23:00;24.30;98.50
28484;DHT22;15704;48.834;8.736;2023-06-22T06:25:26;24.20;98.60
28484;DHT22;15704;48.834;8.736;2023-06-22T06:27:53;24.20;98.50
28484;DHT22;15704;48.834;8.736;2023-06-22T06:30:21;24.20;98.60
28484;DHT22;15704;48.834;8.736;2023-06-22T06:32:49;24.10;98.50
28484;DHT22;15704;48.834;8.736;2023-06-22T06:35:17;24.20;98.50
28484;DHT22;15704;48.834;8.736;2023-06-22T06:37:45;24.20;98.50
28484;DHT22;15704;48.834;8.736;2023-06-22T06:40:13;24.20;98.30
28484;DHT22;15704;48.834;8.736;2023-06-22T06:42:45;24.30;98.20
28484;DHT22;15704;48.834;8.736;2023-06-22T06:45:14;24.30;98.00
28484;DHT22;15704;48.834;8.736;2023-06-22T06:47:41;24.30;97.90
28484;DHT22;15704;48.834;8.736;2023-06-22T06:50:09;24.40;98.00
28484;DHT22;15704;48.834;8.736;2023-06-22T06:52:37;24.30;97.70
28484;DHT22;15704;48.834;8.736;2023-06-22T06:55:05;24.40;97.60
28484;DHT22;15704;48.834;8.736;2023-06-22T06:57:35;24.40;97.50
28484;DHT22;15704;48.834;8.736;2023-06-22T07:00:08;24.40;97.90
28484;DHT22;15704;48.834;8.736;2023-06-22T07:02:39;24.40;97.40
28484;DHT22;15704;48.834;8.736;2023-06-22T07:05:07;24.40;97.50
28484;DHT22;15704;48.834;8.736;2023-06-22T07:07:34;24.40;97.40
28484;DHT22;15704;48.834;8.736;2023-06-22T07:10:05;24.40;97.40
28484;DHT22;15704;48.834;8.736;2023-06-22T07:12:33;24.40;97.40
28484;DHT22;15704;48.834;8.736;2023-06-22T07:15:08;24.40;97.50
28484;DHT22;15704;48.834;8.736;2023-06-22T07:17:35;24.50;97.50
28484;DHT22;15704;48.834;8.736;2023-06-22T07:20:03;24.50;97.50
28484;DHT22;15704;48.834;8.736;2023-06-22T07:22:40;24.50;97.60
28484;DHT22;15704;48.834;8.736;2023-06-22T07:25:07;24.50;97.50
28484;DHT22;15704;48.834;8.736;2023-06-22T07:28:04;24.50;97.60
28484;DHT22;15704;48.834;8.736;2023-06-22T07:30:32;24.50;97.50
28484;DHT22;15704;48.834;8.736;2023-06-22T07:33:00;24.50;97.50
28484;DHT22;15704;48.834;8.736;2023-06-22T07:35:31;24.60;97.60
28484;DHT22;15704;48.834;8.736;2023-06-22T07:37:58;24.60;97.50
28484;DHT22;15704;48.834;8.736;2023-06-22T07:40:27;24.70;97.50
28484;DHT22;15704;48.834;8.736;2023-06-22T07:42:54;24.70;97.60
28484;DHT22;15704;48.834;8.736;2023-06-22T07:45:21;24.70;97.60
28484;DHT22;15704;48.834;8.736;2023-06-22T07:47:48;24.70;97.50
28484;DHT22;15704;48.834;8.736;2023-06-22T07:50:14;24.70;97.70
28484;DHT22;15704;48.834;8.736;2023-06-22T07:52:41;24.70;97.80
28484;DHT22;15704;48.834;8.736;2023-06-22T07:55:08;24.70;97.80
28484;DHT22;15704;48.834;8.736;2023-06-22T07:57:35;24.80;97.80
28484;DHT22;15704;48.834;8.736;2023-06-22T08:00:04;24.80;97.70
28484;DHT22;15704;48.834;8.736;2023-06-22T08:02:42;24.80;97.70
28484;DHT22;15704;48.834;8.736;2023-06-22T08:05:09;24.90;97.30
28484;DHT22;15704;48.834;8.736;2023-06-22T08:07:56;24.90;97.30
28484;DHT22;15704;48.834;8.736;2023-06-22T08:10:23;24.90;97.60
28484;DHT22;15704;48.834;8.736;2023-06-22T08:12:50;25.00;97.30
28484;DHT22;15704;48.834;8.736;2023-06-22T08:15:18;25.00;97.50
28484;DHT22;15704;48.834;8.736;2023-06-22T08:17:45;25.10;97.70
28484;DHT22;15704;48.834;8.736;2023-06-22T08:20:13;25.00;97.60
28484;DHT22;15704;48.834;8.736;2023-06-22T08:22:41;25.10;97.40
28484;DHT22;15704;48.834;8.736;2023-06-22T08:25:08;25.10;97.30
28484;DHT22;15704;48.834;8.736;2023-06-22T08:27:35;25.00;97.20
28484;DHT22;15704;48.834;8.736;2023-06-22T08:30:03;25.00;97.30
28484;DHT22;15704;48.834;8.736;2023-06-22T08:32:30;25.00;97.20
28484;DHT22;15704;48.834;8.736;2023-06-22T08:34:59;25.00;97.30
28484;DHT22;15704;48.834;8.736;2023-06-22T08:37:26;24.90;97.20
28484;DHT22;15704;48.834;8.736;2023-06-22T08:39:58;24.90;97.30
28484;DHT22;15704;48.834;8.736;2023-06-22T08:42:25;24.90;97.40
28484;DHT22;15704;48.834;8.736;2023-06-22T08:44:52;24.90;97.20
28484;DHT22;15704;48.834;8.736;2023-06-22T08:47:20;25.00;97.20
28484;DHT22;15704;48.834;8.736;2023-06-22T08:49:48;25.00;97.20
28484;DHT22;15704;48.834;8.736;2023-06-22T08:52:15;25.10;97.30
28484;DHT22;15704;48.834;8.736;2023-06-22T08:54:42;25.10;97.10
28484;DHT22;15704;48.834;8.736;2023-06-22T08:57:09;25.20;96.60
28484;DHT22;15704;48.834;8.736;2023-06-22T08:59:36;25.20;97.30
28484;DHT22;15704;48.834;8.736;2023-06-22T09:02:03;25.20;97.60
28484;DHT22;15704;48.834;8.736;2023-06-22T09:04:30;25.20;96.80
28484;DHT22;15704;48.834;8.736;2023-06-22T09:07:01;25.30;97.70
28484;DHT22;15704;48.834;8.736;2023-06-22T09:09:28;25.30;97.60
28484;DHT22;15704;48.834;8.736;2023-06-22T09:11:55;25.30;97.40
28484;DHT22;15704;48.834;8.736;2023-06-22T09:14:22;25.30;97.40
28484;DHT22;15704;48.834;8.736;2023-06-22T09:16:48;25.30;96.90
28484;DHT22;15704;48.834;8.736;2023-06-22T09:19:15;25.30;97.30
28484;DHT22;15704;48.834;8.736;2023-06-22T09:21:42;25.30;97.60
28484;DHT22;15704;48.834;8.736;2023-06-22T09:24:09;25.30;97.70
28484;DHT22;15704;48.834;8.736;2023-06-22T09:26:36;25.30;97.70
28484;DHT22;15704;48.834;8.736;2023-06-22T09:29:05;25.40;97.70
28484;DHT22;15704;48.834;8.736;2023-06-22T09:31:32;25.40;97.30
28484;DHT22;15704;48.834;8.736;2023-06-22T09:33:59;25.40;96.60
28484;DHT22;15704;48.834;8.736;2023-06-22T09:36:26;25.40;97.40
28484;DHT22;15704;48.834;8.736;2023-06-22T09:38:53;25.50;97.20
28484;DHT22;15704;48.834;8.736;2023-06-22T09:41:22;25.50;97.20
28484;DHT22;15704;48.834;8.736;2023-06-22T09:43:49;25.50;97.00
28484;DHT22;15704;48.834;8.736;2023-06-22T09:46:17;25.60;96.70
28484;DHT22;15704;48.834;8.736;2023-06-22T09:48:44;25.60;97.00
28484;DHT22;15704;48.834;8.736;2023-06-22T09:51:11;25.70;96.60
28484;DHT22;15704;48.834;8.736;2023-06-22T09:53:38;25.70;97.00
28484;DHT22;15704;48.834;8.736;2023-06-22T09:56:05;25.80;96.50
28484;DHT22;15704;48.834;8.736;2023-06-22T09:58:32;25.80;96.20
28484;DHT22;15704;48.834;8.736;2023-06-22T10:00:59;25.90;96.20
28484;DHT22;15704;48.834;8.736;2023-06-22T10:03:26;25.90;96.10
28484;DHT22;15704;48.834;8.736;2023-06-22T10:05:53;26.00;95.90
28484;DHT22;15704;48.834;8.736;2023-06-22T10:08:20;26.00;96.00
28484;DHT22;15704;48.834;8.736;2023-06-22T10:10:47;26.00;95.90
28484;DHT22;15704;48.834;8.736;2023-06-22T10:13:13;26.10;96.80
28484;DHT22;15704;48.834;8.736;2023-06-22T10:15:42;26.10;97.10
28484;DHT22;15704;48.834;8.736;2023-06-22T10:18:09;26.10;95.90
28484;DHT22;15704;48.834;8.736;2023-06-22T10:20:36;26.10;96.00
28484;DHT22;15704;48.834;8.736;2023-06-22T10:23:03;26.10;95.70
28484;DHT22;15704;48.834;8.736;2023-06-22T10:25:30;26.20;96.30
28484;DHT22;15704;48.834;8.736;2023-06-22T10:27:57;26.20;95.50
28484;DHT22;15704;48.834;8.736;2023-06-22T10:30:24;26.20;95.70
28484;DHT22;15704;48.834;8.736;2023-06-22T10:32:50;26.30;96.70
28484;DHT22;15704;48.834;8.736;2023-06-22T10:35:17;26.30;95.90
28484;DHT22;15704;48.834;8.736;2023-06-22T10:37:45;26.40;95.70
28484;DHT22;15704;48.834;8.736;2023-06-22T10:40:13;26.40;95.80
28484;DHT22;15704;48.834;8.736;2023-06-22T10:42:40;26.40;95.50
28484;DHT22;15704;48.834;8.736;2023-06-22T10:45:08;26.40;95.70
28484;DHT22;15704;48.834;8.736;2023-06-22T10:47:35;26.40;96.20
28484;DHT22;15704;48.834;8.736;2023-06-22T10:50:03;26.40;95.70
28484;DHT22;15704;48.834;8.736;2023-06-22T10:52:30;26.40;96.20
28484;DHT22;15704;48.834;8.736;2023-06-22T10:54:58;26.40;95.90
28484;DHT22;15704;48.834;8.736;2023-06-22T10:57:24;26.40;95.90
28484;DHT22;15704;48.834;8.736;2023-06-22T10:59:51;26.50;95.90
28484;DHT22;15704;48.834;8.736;2023-06-22T11:02:18;26.50;95.80
28484;DHT22;15704;48.834;8.736;2023-06-22T11:04:45;26.50;95.80
28484;DHT22;15704;48.834;8.736;2023-06-22T11:07:12;26.60;95.90
28484;DHT22;15704;48.834;8.736;2023-06-22T11:09:39;26.60;95.70
28484;DHT22;15704;48.834;8.736;2023-06-22T11:12:06;26.60;95.80
28484;DHT22;15704;48.834;8.736;2023-06-22T11:14:33;26.70;95.60
28484;DHT22;15704;48.834;8.736;2023-06-22T11:17:00;26.70;95.40
28484;DHT22;15704;48.834;8.736;2023-06-22T11:19:27;26.70;95.20
28484;DHT22;15704;48.834;8.736;2023-06-22T11:21:54;26.70;95.50
28484;DHT22;15704;48.834;8.736;2023-06-22T11:24:20;26.70;95.30
28484;DHT22;15704;48.834;8.736;2023-06-22T11:26:47;26.70;95.20
28484;DHT22;15704;48.834;8.736;2023-06-22T11:29:14;26.70;95.30
28484;DHT22;15704;48.834;8.736;2023-06-22T11:31:57;26.70;95.50
28484;DHT22;15704;48.834;8.736;2023-06-22T11:34:24;26.70;95.30
28484;DHT22;15704;48.834;8.736;2023-06-22T11:36:51;26.70;95.30
28484;DHT22;15704;48.834;8.736;2023-06-22T11:39:18;26.70;95.20
28484;DHT22;15704;48.834;8.736;2023-06-22T11:41:55;26.70;95.10
28484;DHT22;15704;48.834;8.736;2023-06-22T11:44:22;26.70;95.70
28484;DHT22;15704;48.834;8.736;2023-06-22T11:46:49;26.80;96.10
28484;DHT22;15704;48.834;8.736;2023-06-22T11:49:15;26.80;96.30
28484;DHT22;15704;48.834;8.736;2023-06-22T11:51:42;26.80;96.40
28484;DHT22;15704;48.834;8.736;2023-06-22T11:54:09;26.80;96.50
28484;DHT22;15704;48.834;8.736;2023-06-22T11:56:36;26.80;96.60
28484;DHT22;15704;48.834;8.736;2023-06-22T11:59:02;26.90;96.60
28484;DHT22;15704;48.834;8.736;2023-06-22T12:01:29;26.90;96.60
28484;DHT22;15704;48.834;8.736;2023-06-22T12:03:56;26.90;96.40
28484;DHT22;15704;48.834;8.736;2023-06-22T12:06:23;26.90;96.30
28484;DHT22;15704;48.834;8.736;2023-06-22T12:08:50;26.90;96.60
28484;DHT22;15704;48.834;8.736;2023-06-22T12:11:17;26.90;96.80
28484;DHT22;15704;48.834;8.736;2023-06-22T12:13:44;26.90;97.00
28484;DHT22;15704;48.834;8.736;2023-06-22T12:16:10;26.90;97.10
28484;DHT22;15704;48.834;8.736;2023-06-22T12:18:38;26.90;97.30
28484;DHT22;15704;48.834;8.736;2023-06-22T12:21:05;26.90;97.40
28484;DHT22;15704;48.834;8.736;2023-06-22T12:23:32;27.00;97.20
28484;DHT22;15704;48.834;8.736;2023-06-22T12:25:58;27.00;97.10
28484;DHT22;15704;48.834;8.736;2023-06-22T12:28:26;27.10;96.70
28484;DHT22;15704;48.834;8.736;2023-06-22T12:30:53;27.10;96.70
28484;DHT22;15704;48.834;8.736;2023-06-22T12:33:20;27.20;96.50
28484;DHT22;15704;48.834;8.736;2023-06-22T12:35:47;27.20;96.30
28484;DHT22;15704;48.834;8.736;2023-06-22T12:38:15;27.20;95.10
28484;DHT22;15704;48.834;8.736;2023-06-22T12:40:42;27.20;95.30
28484;DHT22;15704;48.834;8.736;2023-06-22T12:43:09;27.20;96.30
28484;DHT22;15704;48.834;8.736;2023-06-22T12:45:36;27.20;94.90
28484;DHT22;15704;48.834;8.736;2023-06-22T12:48:02;27.20;94.60
28484;DHT22;15704;48.834;8.736;2023-06-22T12:50:29;27.20;96.50
28484;DHT22;15704;48.834;8.736;2023-06-22T12:52:57;27.30;96.30
28484;DHT22;15704;48.834;8.736;2023-06-22T12:55:24;27.30;96.10
28484;DHT22;15704;48.834;8.736;2023-06-22T12:57:51;27.30;94.80
28484;DHT22;15704;48.834;8.736;2023-06-22T13:00:18;27.30;94.60
28484;DHT22;15704;48.834;8.736;2023-06-22T13:02:45;27.30;94.60
28484;DHT22;15704;48.834;8.736;2023-06-22T13:05:11;27.30;95.40
28484;DHT22;15704;48.834;8.736;2023-06-22T13:07:38;27.40;95.20
28484;DHT22;15704;48.834;8.736;2023-06-22T13:10:05;27.50;95.80
28484;DHT22;15704;48.834;8.736;2023-06-22T13:12:32;27.50;95.40
28484;DHT22;15704;48.834;8.736;2023-06-22T13:14:59;27.50;95.80
28484;DHT22;15704;48.834;8.736;2023-06-22T13:17:26;27.50;95.90
28484;DHT22;15704;48.834;8.736;2023-06-22T13:19:53;27.50;96.00
28484;DHT22;15704;48.834;8.736;2023-06-22T13:22:33;27.60;96.10
28484;DHT22;15704;48.834;8.736;2023-06-22T13:25:07;27.60;96.70
28484;DHT22;15704;48.834;8.736;2023-06-22T13:27:34;27.60;96.30
28484;DHT22;15704;48.834;8.736;2023-06-22T13:30:01;27.60;97.00
28484;DHT22;15704;48.834;8.736;2023-06-22T13:32:29;27.50;96.10
28484;DHT22;15704;48.834;8.736;2023-06-22T13:34:56;27.60;96.50
28484;DHT22;15704;48.834;8.736;2023-06-22T13:37:22;27.60;96.50
28484;DHT22;15704;48.834;8.736;2023-06-22T13:39:49;27.60;96.40
28484;DHT22;15704;48.834;8.736;2023-06-22T13:42:16;27.60;96.30
28484;DHT22;15704;48.834;8.736;2023-06-22T13:44:43;27.60;96.20
28484;DHT22;15704;48.834;8.736;2023-06-22T13:47:09;27.60;96.50
28484;DHT22;15704;48.834;8.736;2023-06-22T13:49:36;27.50;94.20
28484;DHT22;15704;48.834;8.736;2023-06-22T13:52:03;27.50;93.00
28484;DHT22;15704;48.834;8.736;2023-06-22T13:54:30;27.40;93.60
28484;DHT22;15704;48.834;8.736;2023-06-22T13:57:00;27.40;92.00
28484;DHT22;15704;48.834;8.736;2023-06-22T13:59:26;27.40;91.40
28484;DHT22;15704;48.834;8.736;2023-06-22T14:01:54;27.30;93.20
28484;DHT22;15704;48.834;8.736;2023-06-22T14:04:23;27.30;91.40
28484;DHT22;15704;48.834;8.736;2023-06-22T14:06:50;27.20;92.70
28484;DHT22;15704;48.834;8.736;2023-06-22T14:09:19;27.20;91.90
28484;DHT22;15704;48.834;8.736;2023-06-22T14:11:46;27.20;92.20
28484;DHT22;15704;48.834;8.736;2023-06-22T14:14:12;27.10;92.30
28484;DHT22;15704;48.834;8.736;2023-06-22T14:16:39;27.20;87.60
28484;DHT22;15704;48.834;8.736;2023-06-22T14:19:06;27.10;91.80
28484;DHT22;15704;48.834;8.736;2023-06-22T14:21:33;27.10;90.70
28484;DHT22;15704;48.834;8.736;2023-06-22T14:23:59;27.10;91.00
28484;DHT22;15704;48.834;8.736;2023-06-22T14:26:26;27.10;87.00
28484;DHT22;15704;48.834;8.736;2023-06-22T14:28:53;27.10;89.40
28484;DHT22;15704;48.834;8.736;2023-06-22T14:31:20;27.10;90.00
28484;DHT22;15704;48.834;8.736;2023-06-22T14:33:48;27.10;90.00
28484;DHT22;15704;48.834;8.736;2023-06-22T14:36:16;27.20;90.50
28484;DHT22;15704;48.834;8.736;2023-06-22T14:38:44;27.10;90.40
28484;DHT22;15704;48.834;8.736;2023-06-22T14:41:13;27.10;90.20
28484;DHT22;15704;48.834;8.736;2023-06-22T14:43:49;27.20;90.00
28484;DHT22;15704;48.834;8.736;2023-06-22T14:46:18;27.10;89.60
28484;DHT22;15704;48.834;8.736;2023-06-22T14:48:45;27.20;90.30
28484;DHT22;15704;48.834;8.736;2023-06-22T14:51:12;27.10;87.90
28484;DHT22;15704;48.834;8.736;2023-06-22T14:53:46;27.10;90.30
28484;DHT22;15704;48.834;8.736;2023-06-22T14:56:13;27.10;90.10
28484;DHT22;15704;48.834;8.736;2023-06-22T14:58:42;27.10;89.60
28484;DHT22;15704;48.834;8.736;2023-06-22T15:01:16;27.10;89.40
28484;DHT22;15704;48.834;8.736;2023-06-22T15:03:43;27.10;87.90
28484;DHT22;15704;48.834;8.736;2023-06-22T15:06:10;27.20;87.80
28484;DHT22;15704;48.834;8.736;2023-06-22T15:08:38;27.20;88.00
28484;DHT22;15704;48.834;8.736;2023-06-22T15:11:05;27.20;88.60
28484;DHT22;15704;48.834;8.736;2023-06-22T15:13:32;27.30;88.90
28484;DHT22;15704;48.834;8.736;2023-06-22T15:16:03;27.30;89.00
28484;DHT22;15704;48.834;8.736;2023-06-22T15:18:30;27.30;89.10
28484;DHT22;15704;48.834;8.736;2023-06-22T15:20:57;27.30;89.60
28484;DHT22;15704;48.834;8.736;2023-06-22T15:23:26;27.30;89.40
28484;DHT22;15704;48.834;8.736;2023-06-22T15:25:52;27.30;89.90
28484;DHT22;15704;48.834;8.736;2023-06-22T15:28:19;27.30;89.80
28484;DHT22;15704;48.834;8.736;2023-06-22T15:30:48;27.30;90.00
28484;DHT22;15704;48.834;8.736;2023-06-22T15:33:16;27.30;90.20
28484;DHT22;15704;48.834;8.736;2023-06-22T15:35:43;27.30;90.30
28484;DHT22;15704;48.834;8.736;2023-06-22T15:38:10;27.30;90.40
28484;DHT22;15704;48.834;8.736;2023-06-22T15:40:36;27.30;90.50
28484;DHT22;15704;48.834;8.736;2023-06-22T15:43:03;27.30;91.50
28484;DHT22;15704;48.834;8.736;2023-06-22T15:45:30;27.30;91.70